Terminal Aerodrome Forecast
Issued by NWS

Home | Current Version | Previous Version | Text Only | Print | Product List | Glossary On
Versions: 1 2 3 4 5 6 7 8 9 10 11 12 13 14 15
000
FTUS43 KMQT 111244 AAA
TAFIWD
TAF AMD
KIWD 111244Z 1113/1212 22006KT 3SM -SHSN OVC030
     FM111400 29008KT 5SM -SHSN OVC030
     FM112200 33016G26KT P6SM -SHSN OVC020
     FM120200 33015G26KT 5SM -SHSN BLSN BKN020
     FM120700 34014G22KT P6SM BKN025=

USA.gov is the U.S. government's official web portal to all federal, state and local government web resources and services.